Flight Track Log - Related Links

Times and Time Zones

All times are in EDT time to prevent confusion due to time zone crossing. See the N27XP flight status page for this flight to view local times or setup timezone preferences in your user account.


Time Position Orientation Groundspeed Altitude Reporting Facility
EDT Latitude Longitude Course Direction KTS MPH feet Rate Location/Type
Mon 07:02:15 AM 35.2511 -79.6336 261° West 275 316 9,500  Level Washington Center
Mon 07:04:25 AM 35.2208 -79.8389 260° West 293 337 13,000 1,611 Climbing Atlanta Center
Mon 07:05:25 AM 35.2058 -79.9514 261° West 315 362 14,600 1,450 Climbing Atlanta Center
Mon 07:06:00 AM 35.1549 -79.9610 261° West  Level FlightAware Approximate
Mon 07:06:25 AM 35.1892 -80.0767 261° West 338 389 15,900  Level Atlanta Center
Mon 07:07:25 AM 35.1719 -80.1969 260° West 349 402 15,900  Level Atlanta Center
Mon 07:08:25 AM 35.1531 -80.3225 260° West 368 423 15,900 50 Level Atlanta Center
Mon 07:09:25 AM 35.1358 -80.4500 261° West 381 438 16,000  Climbing Atlanta Center
Mon 07:10:25 AM 35.1164 -80.5753 259° West 381 438 15,900 -100 Descending Atlanta Center
Mon 07:11:25 AM 35.0992 -80.6981 260° West 375 432 15,800 -330 Descending Atlanta Center
Mon 07:11:56 AM 35.0925 -80.7617 263° West 369 425 15,400 -800 Descending Atlanta Center
Mon 07:12:25 AM 35.0814 -80.8231 258° West 375 432 15,000 -774 Descending Atlanta Center
Mon 07:12:27 AM 35.0817 -80.8306 273° West 373 429 15,000 -400 Level Atlanta Center
Mon 07:13:25 AM 35.0617 -80.9456 258° West 375 432 14,600 -400 Descending Atlanta Center
Mon 07:13:27 AM 35.0619 -80.9506 274° West 362 417 14,600 -900 Level Atlanta Center
Mon 07:14:25 AM 35.0475 -81.0503 260° West 370 426 13,700 -1,082 Descending Atlanta Center
Mon 07:14:28 AM 35.0461 -81.0731 266° West 363 418 13,500 -1,429 Descending Atlanta Center
Mon 07:15:28 AM 35.0281 -81.1953 260° West 365 420 12,200 -1,339 Descending Atlanta Center
Mon 07:16:29 AM 35.0100 -81.3153 260° West 358 412 10,800 -1,128 Descending Atlanta Center
Mon 07:17:25 AM 34.9933 -81.4122 258° West 370 426 10,000 -787 Descending Atlanta Center
Mon 07:17:30 AM 34.9914 -81.4275 261° West 344 396 10,000 -100 Level Atlanta Center
Mon 07:18:25 AM 34.9789 -81.5189 261° West 347 399 9,900 -52 Descending Atlanta Center
Mon 07:19:25 AM 34.9603 -81.6286 258° West 336 387 9,900 -200 Level Atlanta Center
Mon 07:20:25 AM 34.9331 -81.7333 252° West 336 387 9,500 -900 Descending Atlanta Center
Mon 07:21:25 AM 34.9097 -81.8275 253° West 320 368 8,100 -1,500 Descending Atlanta Center
Mon 07:22:25 AM 34.8883 -81.9219 255° West 304 350 6,500 -1,550 Descending Atlanta Center
Mon 07:23:25 AM 34.8628 -82.0061 250° West 286 329 5,000 -1,550 Descending Atlanta Center
Mon 07:24:25 AM 34.8433 -82.0950 255° West 281 323 3,400 -1,000 Descending Atlanta Center
Mon 07:25:25 AM 34.8319 -82.1789 261° West 270 311 3,000 -300 Descending Atlanta Center
Mon 07:26:25 AM 34.8603 -82.2492 296° West 239 275 2,800 -450 Descending Atlanta Center
Mon 07:27:25 AM 34.8778 -82.3044 291° West 207 238 2,100 -650 Descending Atlanta Center
Mon 07:28:25 AM 34.8719 -82.3500 261° West 164 189 1,500 -600 Descending Atlanta Center
Mon 07:29:25 AM 34.8514 -82.3733 223° Southwest 111 128 900 -600 Descending Atlanta Center

Login

Don't have an account? Register now (free) for customized features, flight alerts, and more!